KASX/ASX METAR and TAF weather

Enter ICAO airport designator
Station Type Date Time Source
KASX METAR 2021/04/14 19:53 UTC NOAA

KASX 141953Z AUTO 32012G18KT 10SM BKN030 OVC035 07/02 A3006 RMK AO2 SLP189 T00720017


Station Type Date Time Source
KASX Decoded METAR 2021/04/14 19:53 UTC NOAA

ASHLAND KENNEDY MEMORIAL, WI, United States (KASX) 46-33N 090-55W 251M
Apr 14, 2021 - 03:53 PM EDT / 2021.04.14 1953 UTC
Wind: from the NW (320 degrees) at 14 MPH (12 KT) gusting to 21 MPH (18 KT):0
Visibility: 10 mile(s):0
Sky conditions: overcast
Temperature: 45.0 F (7.2 C)
Dew Point: 35.1 F (1.7 C)
Relative Humidity: 68%
Pressure (altimeter): 30.06 in. Hg (1017 hPa)
ob: KASX 141953Z AUTO 32012G18KT 10SM BKN030 OVC035 07/02 A3006 RMK AO2 SLP189 T00720017
cycle: 20

Station Type Date Time Source
KASX TAF UTC NOAA

Error!

Example: see airport list